LIEE/CAG METAR and TAF weather

Enter ICAO airport designator
Station Type Date Time Source
LIEE METAR 2020/01/17 22:20 UTC NOAA

LIEE 172220Z 33004KT 9999 SCT040 11/09 Q1028


Station Type Date Time Source
LIEE Decoded METAR 2020/01/17 22:20 UTC NOAA

Cagliari / Elmas, Italy (LIEE) 39-15N 009-04E 5M
Jan 17, 2020 - 05:20 PM EST / 2020.01.17 2220 UTC
Wind: from the NNW (330 degrees) at 5 MPH (4 KT):0
Visibility: greater than 7 mile(s):0
Sky conditions: partly cloudy
Temperature: 51 F (11 C)
Dew Point: 48 F (9 C)
Relative Humidity: 87%
Pressure (altimeter): 30.36 in. Hg (1028 hPa)
ob: LIEE 172220Z 33004KT 9999 SCT040 11/09 Q1028
cycle: 22

Station Type Date Time Source
LIEE TAF 2020/01/17 18:21 UTC NOAA

TAF LIEE 171700Z 1718/1818 33010KT 9999 SCT040

Example: see airport list